South Effingham, NH

9:45 PM EDT on September 20, 2014 (GMT -0400)
misty lane | Change Station
CLOSE
Current Station
Personal Weather Station
Location: Brownfield, ME
Elevation: 404 ft
Nearby Weather Stations

Elev 404 ft 43.94 °N, 70.87 °W | Updated 11 minutes ago

Overcast
Overcast
52.9 °F
Feels Like 52.9 °F
N
0.0
Wind Variable Wind from SSW
Gusts 1.0 mph

Today
High -- | Low -- °F
--% Chance of Precip.
Yesterday
High -- | Low -- °F
Precip. -- in
6:28 AM 6:45 PM
Waning Crescent, 9% visible
Pressure 30.10 in
Visibility 10.0 miles
Clouds Overcast 3200 ft
Dew Point 52 °F
Humidity 96%
Rainfall 0.00 in
Snow Depth Not available.
UV 0 out of 12
Pollen 2.40 out of 12
Ozone Good
Flu Activity Not available.
METAR KIZG 210054Z AUTO 00000KT 10SM OVC032 13/11 A3009 RMK AO2 SLP192 T01280111

More Conditions Fewer Conditions

Pressure 30.10 in
Visibility 10.0 miles
Clouds Overcast 3200 ft
Dew Point 52 °F
Humidity 96%
Rainfall 0.00 in
Snow Depth Not available.
UV 0 out of 12
Pollen 2.40 out of 12
Ozone Good
Flu Activity Not available.
METAR KIZG 210054Z AUTO 00000KT 10SM OVC032 13/11 A3009 RMK AO2 SLP192 T01280111

More Conditions Fewer Conditions

10-Day Weather Forecast

Almanac

Astronomy

Sep. 20, 2014 Rise Set
Actual Time 6:28 AM EDT 6:45 PM EDT
Civil Twilight 6:00 AM EDT 7:13 PM EDT
Nautical Twilight 5:26 AM EDT 7:47 PM EDT
Astronomical Twilight 4:51 AM EDT 8:22 PM EDT
Moon 3:00 AM EDT (9/20) 4:51 PM EDT (9/20)
Length of Visible Light 13h 13m
Length of Day
12h 16m
Tomorrow will be 2m 58s shorter.
Waning Crescent, 9% of the Moon is Illuminated
Today
Waning Crescent
Sep 24
New
Oct 1
First Quarter
Oct 8
Full
Oct 15
Last Quarter

Today's Extremes

State Highs State Lows

Community

WunderPhotos

Upload Photos

1,755,032 photos uploaded!

WunderBlogs® & News

Nearby

Air Quality

  Air Quality AQ Index Pollutant
Yesterday Good
OZONE
Current Good
OZONE
Saturday Good
PM2.5
Saturday Good
OZONE
Sunday Good
PM2.5
Sunday Good
OZONE
Monday Good
PM2.5
Monday Good
OZONE

Snow Depth

Station Depth Elevation
No new snow has been reported.

Earthquake Activity

City Distance Mag. Time & Date
No recent earthquake activity has been reported nearby.
Minimum magnitude displayed is 2.5.

Coastal Water Temperatures

Place Temperature
No Stations Reporting

Nearby Weather Stations